createdAt,value
2019-03-19T00:05:31.419Z,93.60
2019-03-19T00:11:12.711Z,93.30
2019-03-19T00:16:54.321Z,93.40
2019-03-19T00:22:36.093Z,93.40
2019-03-19T00:28:17.557Z,93.70
2019-03-19T00:34:00.051Z,93.70
2019-03-19T00:42:36.599Z,93.90
2019-03-19T00:45:24.883Z,93.90
2019-03-19T00:51:06.027Z,93.60
2019-03-19T00:53:54.036Z,93.50
2019-03-19T00:56:42.003Z,93.40
2019-03-19T01:02:17.222Z,93.30
2019-03-19T01:04:58.649Z,93.40
2019-03-19T01:07:39.088Z,93.50
2019-03-19T01:10:20.536Z,93.70
2019-03-19T01:12:59.782Z,93.80
2019-03-19T01:15:47.739Z,93.80
2019-03-19T01:18:36.515Z,94.00
2019-03-19T01:27:12.339Z,94.00
2019-03-19T01:30:00.378Z,93.90
2019-03-19T01:32:48.371Z,93.80
2019-03-19T01:35:36.297Z,93.70
2019-03-19T01:47:06.025Z,93.10
2019-03-19T01:52:47.358Z,92.90
2019-03-19T01:55:35.361Z,92.90
2019-03-19T01:58:23.286Z,92.80
2019-03-19T02:04:05.724Z,92.50
2019-03-19T02:09:46.912Z,92.40
2019-03-19T02:12:34.907Z,92.40
2019-03-19T02:15:15.709Z,92.50
2019-03-19T02:17:57.016Z,92.40
2019-03-19T02:20:37.814Z,92.60
2019-03-19T02:23:18.337Z,92.50
2019-03-19T02:25:58.778Z,92.50
2019-03-19T02:28:39.170Z,92.60
2019-03-19T02:31:18.270Z,92.70
2019-03-19T02:37:00.011Z,92.80
2019-03-19T02:42:22.226Z,93.00
2019-03-19T02:48:04.682Z,93.30
2019-03-19T02:53:45.959Z,93.50
2019-03-19T02:56:33.948Z,93.70
2019-03-19T02:59:21.915Z,93.90
2019-03-19T03:05:02.962Z,94.20
2019-03-19T03:07:51.155Z,94.20
2019-03-19T03:10:39.170Z,94.40
2019-03-19T03:16:21.155Z,94.40
2019-03-19T03:22:02.398Z,94.70
2019-03-19T03:27:44.628Z,94.90
2019-03-19T03:33:18.895Z,95.20
2019-03-19T03:35:59.999Z,95.20
2019-03-19T03:38:41.223Z,95.30
2019-03-19T03:41:21.750Z,95.30
2019-03-19T03:44:02.307Z,95.40
2019-03-19T03:46:43.878Z,95.40
2019-03-19T03:49:24.182Z,95.30
2019-03-19T03:52:05.513Z,95.10
2019-03-19T03:54:46.127Z,95.00
2019-03-19T03:57:27.016Z,94.80
2019-03-19T04:00:08.363Z,94.70
2019-03-19T04:02:49.489Z,94.60
2019-03-19T04:05:30.363Z,94.50
2019-03-19T04:08:12.037Z,94.40
2019-03-19T04:10:54.047Z,94.20
2019-03-19T04:13:34.928Z,94.20
2019-03-19T04:16:15.531Z,94.20
2019-03-19T04:18:56.259Z,94.00
2019-03-19T04:21:37.645Z,94.00
2019-03-19T04:24:19.090Z,94.00
2019-03-19T04:27:00.048Z,93.90
2019-03-19T04:29:41.008Z,93.90
2019-03-19T04:32:21.635Z,93.90
2019-03-19T04:35:02.430Z,93.80
2019-03-19T04:37:44.008Z,93.80
2019-03-19T04:40:25.120Z,93.90
2019-03-19T04:43:05.509Z,93.70
2019-03-19T04:45:46.871Z,93.70
2019-03-19T04:48:27.459Z,93.60
2019-03-19T04:51:08.022Z,93.60
2019-03-19T04:53:48.389Z,93.60
2019-03-19T04:56:28.809Z,93.60
2019-03-19T04:59:09.835Z,93.60
2019-03-19T05:04:51.576Z,93.50
2019-03-19T05:10:33.009Z,93.60
2019-03-19T05:13:21.021Z,93.60
2019-03-19T05:16:09.070Z,93.60
2019-03-19T05:18:57.139Z,93.60
2019-03-19T05:21:45.091Z,93.70
2019-03-19T05:24:33.331Z,93.70
2019-03-19T05:27:21.279Z,93.50
2019-03-19T05:33:03.770Z,93.50
2019-03-19T05:38:45.201Z,93.40
2019-03-19T05:44:27.403Z,93.10
2019-03-19T05:50:09.314Z,93.10
2019-03-19T05:52:57.311Z,93.00
2019-03-19T05:55:45.256Z,92.90
2019-03-19T06:01:19.070Z,92.80
2019-03-19T06:03:58.447Z,92.70
2019-03-19T06:06:46.407Z,92.50
2019-03-19T06:12:27.895Z,92.50
2019-03-19T06:18:09.547Z,92.50
2019-03-19T06:20:57.630Z,92.40
2019-03-19T06:26:52.716Z,92.00
2019-03-19T06:29:40.663Z,92.00
2019-03-19T06:35:22.352Z,92.00
2019-03-19T06:38:10.538Z,91.40
2019-03-19T06:40:58.894Z,91.80
2019-03-19T06:46:40.603Z,91.30
2019-03-19T06:52:22.910Z,90.60
2019-03-19T06:55:11.094Z,90.40
2019-03-19T07:01:06.374Z,89.60
2019-03-19T07:03:54.317Z,88.90
2019-03-19T07:06:35.327Z,87.10
2019-03-19T07:09:16.490Z,86.50
2019-03-19T07:11:57.076Z,85.20
2019-03-19T07:14:37.644Z,83.40
2019-03-19T07:17:18.436Z,82.80
2019-03-19T07:19:59.555Z,82.80
2019-03-19T07:22:40.933Z,83.10
2019-03-19T07:25:22.102Z,82.30
2019-03-19T07:28:02.741Z,81.90
2019-03-19T07:30:43.083Z,81.80
2019-03-19T07:33:24.238Z,82.20
2019-03-19T07:36:06.338Z,81.60
2019-03-19T07:38:47.449Z,79.90
2019-03-19T07:41:27.921Z,77.30
2019-03-19T07:44:08.701Z,76.20
2019-03-19T07:46:49.833Z,75.60
2019-03-19T07:49:30.222Z,75.50
2019-03-19T07:52:11.184Z,74.40
2019-03-19T07:54:52.359Z,68.00
2019-03-19T07:57:33.040Z,62.70
2019-03-19T08:00:14.224Z,62.80
2019-03-19T08:02:55.059Z,61.80
2019-03-19T08:05:36.068Z,58.40
2019-03-19T08:08:17.235Z,54.70
2019-03-19T08:10:58.841Z,51.90
2019-03-19T08:13:39.362Z,51.90
2019-03-19T08:16:27.320Z,50.70
2019-03-19T08:19:02.570Z,47.60
2019-03-19T08:21:43.268Z,44.80
2019-03-19T08:24:24.408Z,43.50
2019-03-19T08:27:05.108Z,44.30
2019-03-19T08:29:45.707Z,45.60
2019-03-19T08:32:26.432Z,44.40
2019-03-19T08:35:06.911Z,46.10
2019-03-19T08:37:47.315Z,49.70
2019-03-19T08:40:28.087Z,51.00
2019-03-19T08:43:09.245Z,51.10
2019-03-19T08:45:50.229Z,52.20
2019-03-19T08:48:31.291Z,54.70
2019-03-19T08:51:12.035Z,54.60
2019-03-19T08:53:52.659Z,53.90
2019-03-19T08:56:33.815Z,52.80
2019-03-19T08:59:14.503Z,54.60
2019-03-19T09:01:55.365Z,56.00
2019-03-19T09:04:36.139Z,46.90
2019-03-19T09:07:17.164Z,47.20
2019-03-19T09:09:58.446Z,42.20
2019-03-19T09:12:39.363Z,40.80
2019-03-19T09:15:20.618Z,39.10
2019-03-19T09:18:01.168Z,39.10
2019-03-19T09:20:42.776Z,41.80
2019-03-19T09:23:23.507Z,44.80
2019-03-19T09:26:04.487Z,46.70
2019-03-19T09:28:44.871Z,49.80
2019-03-19T09:31:25.590Z,49.40
2019-03-19T09:34:06.758Z,47.00
2019-03-19T09:36:57.000Z,42.40
2019-03-19T09:39:29.725Z,37.80
2019-03-19T09:42:10.579Z,37.40
2019-03-19T09:44:58.435Z,38.00
2019-03-19T09:47:33.299Z,32.70
2019-03-19T09:50:14.231Z,33.60
2019-03-19T09:52:55.306Z,35.30
2019-03-19T09:55:35.843Z,36.40
2019-03-19T09:58:16.672Z,37.30
2019-03-19T10:03:40.104Z,43.20
2019-03-19T10:06:20.956Z,45.50
2019-03-19T10:09:04.941Z,44.30
2019-03-19T10:11:44.121Z,42.70
2019-03-19T10:17:43.567Z,38.90
2019-03-19T10:23:25.647Z,34.30
2019-03-19T10:29:06.976Z,33.20
2019-03-19T10:32:12.667Z,34.20
2019-03-19T10:35:00.648Z,34.50
2019-03-19T10:37:32.291Z,34.50
2019-03-19T10:40:20.263Z,34.60
2019-03-19T10:43:08.299Z,36.40
2019-03-19T10:45:56.486Z,37.30
2019-03-19T10:48:44.975Z,38.90
2019-03-19T10:51:35.096Z,40.20
2019-03-19T10:57:16.459Z,43.50
2019-03-19T11:06:14.714Z,44.90
2019-03-19T11:09:02.755Z,45.20
2019-03-19T11:11:50.755Z,45.30
2019-03-19T11:14:31.706Z,45.50
2019-03-19T11:17:12.761Z,46.20
2019-03-19T11:19:52.796Z,46.00
2019-03-19T11:22:40.807Z,46.70
2019-03-19T11:28:22.171Z,46.50
2019-03-19T11:31:10.183Z,47.90
2019-03-19T11:33:58.223Z,49.30
2019-03-19T11:36:57.225Z,49.70
2019-03-19T11:39:35.933Z,51.80
2019-03-19T11:45:17.339Z,55.20
2019-03-19T11:48:05.401Z,57.20
2019-03-19T11:50:53.342Z,58.40
2019-03-19T11:53:41.299Z,59.20
2019-03-19T11:56:29.248Z,58.50
2019-03-19T12:02:10.671Z,56.90
2019-03-19T12:07:52.555Z,56.90
2019-03-19T12:10:40.514Z,55.70
2019-03-19T12:13:28.501Z,49.20
2019-03-19T12:16:16.531Z,48.10
2019-03-19T12:19:04.535Z,48.10
2019-03-19T12:21:45.552Z,46.80
2019-03-19T12:24:26.254Z,47.00
2019-03-19T12:27:07.534Z,45.60
2019-03-19T12:29:48.181Z,45.20
2019-03-19T12:32:29.407Z,46.20
2019-03-19T12:35:10.243Z,48.00
2019-03-19T12:37:50.492Z,48.60
2019-03-19T12:40:38.776Z,48.10
2019-03-19T12:43:27.041Z,47.30
2019-03-19T12:46:15.111Z,45.60
2019-03-19T12:51:56.798Z,47.80
2019-03-19T12:54:44.776Z,47.80
2019-03-19T12:57:33.009Z,47.80
2019-03-19T13:03:14.967Z,50.20
2019-03-19T13:08:57.255Z,48.70
2019-03-19T13:11:26.014Z,48.10
2019-03-19T13:14:14.008Z,47.10
2019-03-19T13:20:01.471Z,45.80
2019-03-19T13:22:49.458Z,46.10
2019-03-19T13:25:37.686Z,45.60
2019-03-19T13:28:25.876Z,45.30
2019-03-19T13:31:14.062Z,42.80
2019-03-19T13:34:02.013Z,43.80
2019-03-19T13:36:50.319Z,45.00
2019-03-19T13:39:30.661Z,45.40
2019-03-19T13:42:11.383Z,46.40
2019-03-19T13:44:51.897Z,47.40
2019-03-19T13:47:33.036Z,47.60
2019-03-19T13:50:13.398Z,48.10
2019-03-19T13:52:54.615Z,48.90
2019-03-19T13:55:34.727Z,49.50
2019-03-19T13:58:22.885Z,50.20
2019-03-19T14:01:11.070Z,50.60
2019-03-19T14:06:52.875Z,48.70
2019-03-19T14:12:15.276Z,48.40
2019-03-19T14:15:03.543Z,49.40
2019-03-19T14:17:51.506Z,49.70
2019-03-19T14:23:13.954Z,49.20
2019-03-19T14:26:02.023Z,49.70
2019-03-19T14:28:50.059Z,49.50
2019-03-19T14:34:46.076Z,49.50
2019-03-19T14:40:16.468Z,50.90
2019-03-19T14:46:00.140Z,49.50
2019-03-19T14:48:48.150Z,49.80
2019-03-19T14:51:36.304Z,49.80
2019-03-19T14:54:24.241Z,50.40
2019-03-19T14:57:05.892Z,50.00
2019-03-19T14:59:46.280Z,51.00
2019-03-19T15:02:27.623Z,50.80
2019-03-19T15:05:07.806Z,50.70
2019-03-19T15:10:49.041Z,49.40
2019-03-19T15:16:30.458Z,50.70
2019-03-19T15:22:13.956Z,50.90
2019-03-19T15:27:55.331Z,50.70
2019-03-19T15:30:43.431Z,50.60
2019-03-19T15:33:31.390Z,50.90
2019-03-19T15:39:13.650Z,51.30
2019-03-19T15:42:01.588Z,51.40
2019-03-19T15:44:49.555Z,51.20
2019-03-19T15:47:37.531Z,52.30
2019-03-19T15:50:25.461Z,52.80
2019-03-19T15:56:06.999Z,53.70
2019-03-19T15:58:55.026Z,55.20
2019-03-19T16:01:43.029Z,56.10
2019-03-19T16:07:17.627Z,57.20
2019-03-19T16:09:58.645Z,57.50
2019-03-19T16:12:39.195Z,57.80
2019-03-19T16:15:20.412Z,58.60
2019-03-19T16:18:01.550Z,58.00
2019-03-19T16:20:42.722Z,58.10
2019-03-19T16:23:23.455Z,58.60
2019-03-19T16:26:04.608Z,58.70
2019-03-19T16:28:45.616Z,58.50
2019-03-19T16:31:26.511Z,58.90
2019-03-19T16:34:07.159Z,58.90
2019-03-19T16:36:47.643Z,57.80
2019-03-19T16:39:28.572Z,59.20
2019-03-19T16:42:10.096Z,59.20
2019-03-19T16:44:51.189Z,59.50
2019-03-19T16:47:32.226Z,60.10
2019-03-19T16:50:13.996Z,59.80
2019-03-19T16:52:54.576Z,60.60
2019-03-19T16:55:36.769Z,60.60
2019-03-19T16:58:17.518Z,61.50
2019-03-19T17:00:58.664Z,62.30
2019-03-19T17:03:40.145Z,62.50
2019-03-19T17:06:21.379Z,63.40
2019-03-19T17:09:02.257Z,64.20
2019-03-19T17:11:43.368Z,65.00
2019-03-19T17:14:24.556Z,65.60
2019-03-19T17:17:07.197Z,66.70
2019-03-19T17:19:47.870Z,66.90
2019-03-19T17:22:28.944Z,67.90
2019-03-19T17:25:09.737Z,67.90
2019-03-19T17:27:50.387Z,68.10
2019-03-19T17:30:31.491Z,68.70
2019-03-19T17:33:12.157Z,69.40
2019-03-19T17:35:53.145Z,69.80
2019-03-19T17:38:33.540Z,70.10
2019-03-19T17:41:14.675Z,70.60
2019-03-19T17:43:55.876Z,70.90
2019-03-19T17:46:36.903Z,71.40
2019-03-19T17:51:59.566Z,71.90
2019-03-19T17:54:40.411Z,72.00
2019-03-19T17:57:22.715Z,72.40
2019-03-19T18:00:03.551Z,72.50
2019-03-19T18:02:44.324Z,73.00
2019-03-19T18:05:24.812Z,73.50
2019-03-19T18:08:05.663Z,73.30
2019-03-19T18:10:46.311Z,73.80
2019-03-19T18:13:26.972Z,73.90
2019-03-19T18:16:08.093Z,74.20
2019-03-19T18:18:49.439Z,74.80
2019-03-19T18:21:30.176Z,75.20
2019-03-19T18:24:11.352Z,75.00
2019-03-19T18:26:51.731Z,75.40
2019-03-19T18:29:32.148Z,75.30
2019-03-19T18:32:12.692Z,75.50
2019-03-19T18:34:54.019Z,76.30
2019-03-19T18:37:34.322Z,75.90
2019-03-19T18:40:15.822Z,76.50
2019-03-19T18:42:56.994Z,76.70
2019-03-19T18:45:38.298Z,77.50
2019-03-19T18:48:19.159Z,76.90
2019-03-19T18:50:59.751Z,77.10
2019-03-19T18:56:11.319Z,77.50
2019-03-19T18:58:39.987Z,77.80
2019-03-19T19:01:28.127Z,78.10
2019-03-19T19:04:16.069Z,78.30
2019-03-19T19:10:34.792Z,78.10
2019-03-19T19:13:23.078Z,78.50
2019-03-19T19:19:05.370Z,78.20
2019-03-19T19:21:52.288Z,78.90
2019-03-19T19:24:40.229Z,79.10
2019-03-19T19:27:28.182Z,79.60
2019-03-19T19:30:16.866Z,79.50
2019-03-19T19:33:04.950Z,79.80
2019-03-19T19:35:52.934Z,80.20
2019-03-19T19:38:41.264Z,80.10
2019-03-19T19:41:29.233Z,80.40
2019-03-19T19:44:17.190Z,80.50
2019-03-19T19:47:05.490Z,80.30
2019-03-19T19:52:46.867Z,81.00
2019-03-19T19:55:34.840Z,81.20
2019-03-19T19:58:15.466Z,81.40
2019-03-19T20:00:56.696Z,81.30
2019-03-19T20:03:37.286Z,81.60
2019-03-19T20:06:18.464Z,81.70
2019-03-19T20:08:59.261Z,82.10
2019-03-19T20:11:40.503Z,82.20
2019-03-19T20:14:21.345Z,82.40
2019-03-19T20:17:02.328Z,82.00
2019-03-19T20:19:43.352Z,82.10
2019-03-19T20:22:24.102Z,82.30
2019-03-19T20:25:04.731Z,82.50
2019-03-19T20:27:45.196Z,82.60
2019-03-19T20:30:24.485Z,82.40
2019-03-19T20:36:05.946Z,82.80
2019-03-19T20:41:47.494Z,83.90
2019-03-19T20:47:29.277Z,83.70
2019-03-19T20:56:26.025Z,84.40
2019-03-19T20:59:15.860Z,84.80
2019-03-19T21:02:03.827Z,85.70
2019-03-19T21:04:51.797Z,85.10
2019-03-19T21:07:39.832Z,85.10
2019-03-19T21:10:28.409Z,85.40
2019-03-19T21:13:16.502Z,85.40
2019-03-19T21:18:58.068Z,86.00
2019-03-19T21:24:39.439Z,86.80
2019-03-19T21:30:22.593Z,87.00
2019-03-19T21:33:03.770Z,87.00
2019-03-19T21:35:44.076Z,87.00
2019-03-19T21:41:31.218Z,87.00
2019-03-19T21:44:11.895Z,87.50
2019-03-19T21:46:52.838Z,87.30
2019-03-19T21:49:33.879Z,87.40
2019-03-19T21:55:22.935Z,88.40
2019-03-19T21:58:04.484Z,87.80
2019-03-19T22:00:46.047Z,87.80
2019-03-19T22:03:26.595Z,87.90
2019-03-19T22:09:12.320Z,87.50
2019-03-19T22:11:52.838Z,87.80
2019-03-19T22:14:33.478Z,87.80
2019-03-19T22:17:14.119Z,87.60
2019-03-19T22:19:55.260Z,87.70
2019-03-19T22:22:36.225Z,87.50
2019-03-19T22:25:17.766Z,87.60
2019-03-19T22:27:58.227Z,87.80
2019-03-19T22:30:39.587Z,87.90
2019-03-19T22:33:23.047Z,87.70
2019-03-19T22:36:02.737Z,87.70
2019-03-19T22:41:25.168Z,87.60
2019-03-19T22:46:49.359Z,88.10
2019-03-19T22:49:29.866Z,88.30
2019-03-19T22:52:10.627Z,88.40
2019-03-19T22:54:51.755Z,88.30
2019-03-19T22:57:32.905Z,88.50
2019-03-19T23:00:14.483Z,88.40
2019-03-19T23:02:54.949Z,88.50
2019-03-19T23:05:36.371Z,88.60
2019-03-19T23:08:17.339Z,88.90
2019-03-19T23:13:40.161Z,88.90
2019-03-19T23:16:40.140Z,88.90
2019-03-19T23:22:25.851Z,89.10
2019-03-19T23:25:07.692Z,88.90
2019-03-19T23:27:48.825Z,89.40
2019-03-19T23:33:30.447Z,89.40
2019-03-19T23:36:11.284Z,89.80
2019-03-19T23:42:00.019Z,89.50
2019-03-19T23:44:40.717Z,89.80
2019-03-19T23:47:22.535Z,90.00
2019-03-19T23:50:02.961Z,89.90
2019-03-19T23:52:43.811Z,89.80
2019-03-19T23:55:24.377Z,90.00
2019-03-19T23:58:05.190Z,90.10
